Culcheth, United Kingdom
Current Conditions -  °F | °C
As of 8:20 PM on Saturday 20 Dec 2014 (Local Time) from EGCC Reporting Station
Broken Clouds Broken Clouds  
Wind Chill: 40°   Ceiling: 3800
Heat Index: 45°   Visibility: 6mi
Dew Point: 41°   Wind: 9mph
Humidity: 87%   Direction: 250°WSW
Pressure: 30.36"   Gusts: NA
Location:  53.45°N, 2.52°W
Report Text: EGCC 202020Z 25008KT 9999 FEW016 BKN038 07/05 Q1028 NOSIG
Loading
Personal Weather Stations






























Interactive Weather Map New forecast layout! Learn more

10-Day Weather Forecast

Advertisements
Track Severe Weather on mobile